Time;durP1;ratioP1;P1;durP2;ratioP2;P2;SDS_P1;SDS_P2;PMS_P1;PMS_P2;Temp;Humidity;BMP_temperature;BMP_pressure;BME280_temperature;BME280_humidity;BME280_pressure;Samples;Min_cycle;Max_cycle;Signal;HPM_P1;HPM_P2
2022/01/23 00:00:46;;;;;;;17.02;9.63;;;;;;;;;;4744866;30;20052;-74
2022/01/23 00:03:21;;;;;;;14.97;8.27;;;;;;;;;;4752781;30;20064;-76
2022/01/23 00:05:48;;;;;;;15.10;8.35;;;;;;;;;;4752825;30;20758;-77
2022/01/23 00:08:17;;;;;;;15.73;8.70;;;;;;;;;;4751695;30;20039;-77
2022/01/23 00:10:43;;;;;;;16.10;8.57;;;;;;;;;;4752928;30;20040;-77
2022/01/23 00:13:17;;;;;;;18.43;9.00;;;;;;;;;;4751780;30;20080;-77
2022/01/23 00:18:28;;;;;;;16.70;8.02;;;;;;;;;;4745020;30;20133;-74
2022/01/23 00:20:54;;;;;;;16.95;8.32;;;;;;;;;;4752059;30;20048;-74
2022/01/23 00:31:49;;;;;;;18.05;9.80;;;;;;;;;;4751398;30;20082;-76
2022/01/23 00:34:14;;;;;;;14.90;8.77;;;;;;;;;;4751312;30;20072;-76
2022/01/23 00:36:40;;;;;;;17.40;9.27;;;;;;;;;;4752352;30;20039;-76
2022/01/23 00:39:05;;;;;;;14.33;9.10;;;;;;;;;;4752611;30;20406;-76
2022/01/23 00:41:31;;;;;;;12.57;8.17;;;;;;;;;;4752659;30;20052;-76
2022/01/23 00:43:56;;;;;;;14.23;8.63;;;;;;;;;;4752005;30;20094;-77
2022/01/23 00:46:33;;;;;;;17.03;9.73;;;;;;;;;;4752661;30;20043;-76
2022/01/23 00:51:28;;;;;;;14.47;8.07;;;;;;;;;;4752340;30;20080;-74
2022/01/23 00:53:54;;;;;;;12.68;7.75;;;;;;;;;;4751227;30;20040;-74
2022/01/23 00:56:20;;;;;;;14.70;8.93;;;;;;;;;;4752237;30;20390;-74
2022/01/23 00:58:45;;;;;;;15.47;9.03;;;;;;;;;;4751259;30;20044;-74
2022/01/23 01:01:12;;;;;;;13.60;8.23;;;;;;;;;;4752260;30;20044;-74
2022/01/23 01:03:37;;;;;;;;;;;;;;;;;;4751527;30;20422;-75
2022/01/23 01:06:03;;;;;;;12.63;8.57;;;;;;;;;;4752205;30;19918;-74
2022/01/23 01:08:29;;;;;;;15.87;8.77;;;;;;;;;;4751461;30;20070;-74
2022/01/23 01:32:54;;;;;;;14.02;8.43;;;;;;;;;;4751966;30;20492;-76
2022/01/23 01:35:28;;;;;;;13.85;7.97;;;;;;;;;;4754136;30;20433;-77
2022/01/23 01:37:54;;;;;;;15.93;9.52;;;;;;;;;;4755267;30;20043;-78
2022/01/23 01:40:21;;;;;;;14.37;8.67;;;;;;;;;;4754414;30;20394;-78
2022/01/23 01:42:47;;;;;;;15.55;8.27;;;;;;;;;;4753433;30;20032;-78
2022/01/23 01:45:13;;;;;;;15.37;8.10;;;;;;;;;;4755359;30;20047;-75
2022/01/23 01:47:47;;;;;;;14.73;8.65;;;;;;;;;;4736511;30;20414;-75
2022/01/23 01:50:12;;;;;;;13.95;7.93;;;;;;;;;;4749007;30;20040;-75
2022/01/23 01:52:38;;;;;;;14.00;7.97;;;;;;;;;;4755097;30;20114;-75
2022/01/23 01:55:07;;;;;;;13.37;8.20;;;;;;;;;;4754012;30;20127;-75
2022/01/23 01:57:39;;;;;;;15.77;8.25;;;;;;;;;;4746388;30;20028;-75
2022/01/23 02:03:17;;;;;;;14.60;8.25;;;;;;;;;;4753699;30;20109;-78
2022/01/23 02:08:25;;;;;;;17.48;8.48;;;;;;;;;;4754545;30;20082;-77
2022/01/23 02:10:55;;;;;;;16.30;8.43;;;;;;;;;;4753744;30;20052;-78
2022/01/23 02:13:28;;;;;;;14.80;8.30;;;;;;;;;;4753778;30;20050;-74
2022/01/23 02:50:57;;;;;;;13.43;7.70;;;;;;;;;;4753081;30;20402;-74
2022/01/23 02:55:55;;;;;;;12.32;7.57;;;;;;;;;;4753895;30;20131;-74
2022/01/23 02:58:23;;;;;;;15.38;8.77;;;;;;;;;;4753030;30;20094;-74
2022/01/23 03:01:04;;;;;;;12.73;7.15;;;;;;;;;;4753748;30;20040;-74
2022/01/23 03:03:29;;;;;;;13.20;7.05;;;;;;;;;;4753542;30;20506;-74
2022/01/23 03:14:45;;;;;;;10.63;6.88;;;;;;;;;;4753720;30;20032;-74
2022/01/23 03:25:16;;;;;;;13.77;7.90;;;;;;;;;;4753244;30;20496;-74
2022/01/23 03:30:29;;;;;;;12.75;7.22;;;;;;;;;;4753362;30;20094;-74
2022/01/23 03:32:55;;;;;;;16.42;7.82;;;;;;;;;;4753127;30;20495;-74
2022/01/23 03:35:22;;;;;;;13.33;7.70;;;;;;;;;;4753537;30;20044;-74
2022/01/23 03:37:48;;;;;;;13.90;8.35;;;;;;;;;;4752353;30;20311;-74
2022/01/23 03:40:15;;;;;;;13.35;7.20;;;;;;;;;;4753395;30;20043;-74
2022/01/23 03:42:42;;;;;;;14.10;7.50;;;;;;;;;;4753489;30;20050;-74
2022/01/23 03:47:53;;;;;;;11.38;6.57;;;;;;;;;;4751843;30;20052;-74
2022/01/23 03:50:19;;;;;;;13.18;7.25;;;;;;;;;;4745439;30;20401;-74
2022/01/23 03:52:44;;;;;;;13.80;7.90;;;;;;;;;;4753113;30;20040;-74
2022/01/23 03:55:10;;;;;;;12.63;8.00;;;;;;;;;;4751646;30;20372;-74
2022/01/23 03:57:36;;;;;;;12.20;6.33;;;;;;;;;;4752820;30;20064;-74
2022/01/23 04:00:03;;;;;;;12.37;6.70;;;;;;;;;;4751857;30;20410;-74
2022/01/23 04:02:29;;;;;;;13.27;7.30;;;;;;;;;;4753064;30;20048;-74
2022/01/23 04:04:54;;;;;;;12.63;8.33;;;;;;;;;;4752677;30;20036;-75
2022/01/23 04:07:26;;;;;;;13.40;7.43;;;;;;;;;;4752908;30;20052;-74
2022/01/23 04:09:52;;;;;;;15.50;6.93;;;;;;;;;;4752857;30;20039;-74
2022/01/23 04:20:47;;;;;;;10.70;6.95;;;;;;;;;;4749196;30;20493;-74
2022/01/23 04:34:21;;;;;;;10.90;6.40;;;;;;;;;;4740478;30;20457;-76
2022/01/23 04:45:19;;;;;;;9.82;5.88;;;;;;;;;;4751050;30;20180;-75
2022/01/23 05:01:59;;;;;;;13.50;6.93;;;;;;;;;;4751980;30;20046;-75
2022/01/23 05:04:22;;;;;;;12.57;6.03;;;;;;;;;;4751772;30;20056;-77
2022/01/23 05:06:58;;;;;;;8.63;5.30;;;;;;;;;;4752141;30;20044;-78
2022/01/23 05:09:24;;;;;;;11.10;6.43;;;;;;;;;;4755051;30;20048;-78
2022/01/23 05:11:54;;;;;;;10.47;6.63;;;;;;;;;;4754168;30;20055;-77
2022/01/23 05:14:27;;;;;;;11.98;6.00;;;;;;;;;;4754666;30;20492;-78
2022/01/23 05:16:52;;;;;;;8.50;5.63;;;;;;;;;;4754408;30;20459;-78
2022/01/23 05:19:18;;;;;;;9.27;5.77;;;;;;;;;;4755777;30;20059;-78
2022/01/23 05:24:33;;;;;;;10.80;6.05;;;;;;;;;;4751491;30;20047;-74
2022/01/23 05:27:01;;;;;;;12.95;5.93;;;;;;;;;;4753976;30;20513;-74
2022/01/23 05:29:26;;;;;;;10.10;6.78;;;;;;;;;;4754663;30;20055;-75
2022/01/23 05:31:53;;;;;;;11.20;6.40;;;;;;;;;;4755516;30;20110;-77
2022/01/23 05:34:20;;;;;;;10.57;6.68;;;;;;;;;;4755622;30;20048;-77
2022/01/23 05:36:45;;;;;;;13.02;7.47;;;;;;;;;;4754166;30;20032;-77
2022/01/23 05:39:11;;;;;;;12.50;6.70;;;;;;;;;;4755437;30;20375;-77
2022/01/23 05:41:36;;;;;;;11.23;7.33;;;;;;;;;;4755439;30;20128;-77
2022/01/23 05:44:02;;;;;;;12.40;6.50;;;;;;;;;;4755290;30;20098;-74
2022/01/23 05:46:27;;;;;;;10.50;5.80;;;;;;;;;;4755314;30;20032;-74
2022/01/23 05:48:53;;;;;;;10.43;6.00;;;;;;;;;;4755071;30;20052;-74
2022/01/23 05:51:18;;;;;;;11.50;6.83;;;;;;;;;;4755234;30;20028;-74
2022/01/23 05:53:44;;;;;;;7.33;5.10;;;;;;;;;;4755373;30;20466;-75
2022/01/23 05:56:09;;;;;;;8.97;5.07;;;;;;;;;;4755211;30;20087;-75
2022/01/23 05:58:34;;;;;;;9.00;5.30;;;;;;;;;;4754994;30;20044;-75
2022/01/23 06:01:00;;;;;;;11.20;6.23;;;;;;;;;;4755100;30;20040;-77
2022/01/23 06:03:25;;;;;;;10.73;6.03;;;;;;;;;;4754719;30;20082;-77
2022/01/23 06:05:51;;;;;;;8.20;5.07;;;;;;;;;;4755015;30;20044;-77
2022/01/23 06:08:16;;;;;;;10.70;6.43;;;;;;;;;;4754956;30;20119;-77
2022/01/23 06:11:15;;;;;;;10.88;5.47;;;;;;;;;;4749990;30;20048;-77
2022/01/23 06:13:34;;;;;;;8.15;5.20;;;;;;;;;;4751974;30;20079;-74
2022/01/23 06:16:01;;;;;;;7.10;4.67;;;;;;;;;;4754857;30;20111;-76
2022/01/23 06:18:26;;;;;;;10.50;6.10;;;;;;;;;;4753797;30;20036;-76
2022/01/23 06:20:52;;;;;;;8.20;6.03;;;;;;;;;;4754598;30;20111;-76
2022/01/23 06:23:17;;;;;;;9.90;6.03;;;;;;;;;;4754611;30;20044;-74
2022/01/23 06:25:45;;;;;;;8.23;5.10;;;;;;;;;;4753409;30;20123;-75
2022/01/23 06:28:13;;;;;;;9.82;5.38;;;;;;;;;;4753467;30;20501;-76
2022/01/23 06:30:38;;;;;;;10.10;5.38;;;;;;;;;;4753207;30;20413;-76
2022/01/23 06:33:07;;;;;;;8.70;5.30;;;;;;;;;;4754438;30;20032;-76
2022/01/23 06:35:33;;;;;;;9.40;5.97;;;;;;;;;;4753056;30;20048;-75
2022/01/23 06:37:58;;;;;;;8.40;5.30;;;;;;;;;;4754436;30;20052;-76
2022/01/23 06:40:24;;;;;;;9.83;6.03;;;;;;;;;;4754540;30;20036;-75
2022/01/23 06:42:49;;;;;;;8.37;5.27;;;;;;;;;;4744218;30;20097;-75
2022/01/23 06:45:14;;;;;;;8.17;4.93;;;;;;;;;;4754268;30;20046;-75
2022/01/23 06:47:40;;;;;;;10.50;4.47;;;;;;;;;;4754351;30;20398;-75
2022/01/23 06:50:06;;;;;;;7.87;4.67;;;;;;;;;;4754418;30;20071;-75
2022/01/23 06:52:31;;;;;;;8.77;5.05;;;;;;;;;;4754208;30;20047;-75
2022/01/23 06:54:57;;;;;;;7.60;4.97;;;;;;;;;;4754204;30;20040;-75
2022/01/23 06:57:22;;;;;;;7.40;4.03;;;;;;;;;;4754152;30;20407;-75
2022/01/23 06:59:48;;;;;;;7.47;4.80;;;;;;;;;;4754004;30;20397;-75
2022/01/23 07:02:14;;;;;;;7.87;5.37;;;;;;;;;;4754145;30;20114;-75
2022/01/23 07:04:39;;;;;;;7.03;4.68;;;;;;;;;;4753955;30;20036;-75
2022/01/23 07:07:05;;;;;;;6.97;4.13;;;;;;;;;;4753844;30;20059;-75
2022/01/23 07:09:30;;;;;;;10.00;5.50;;;;;;;;;;4752579;30;20036;-75
2022/01/23 07:11:56;;;;;;;7.27;4.80;;;;;;;;;;4754014;30;20100;-75
2022/01/23 07:14:21;;;;;;;6.47;4.73;;;;;;;;;;4753394;30;20052;-75
2022/01/23 07:16:47;;;;;;;7.73;4.83;;;;;;;;;;4753829;30;20043;-75
2022/01/23 07:19:12;;;;;;;6.30;4.43;;;;;;;;;;4753360;30;20020;-76
2022/01/23 07:21:38;;;;;;;9.07;3.97;;;;;;;;;;4740590;30;20502;-75
2022/01/23 07:24:03;;;;;;;13.33;6.37;;;;;;;;;;4747274;30;20394;-75
2022/01/23 07:26:29;;;;;;;6.37;3.93;;;;;;;;;;4749188;30;20044;-75
2022/01/23 07:28:58;;;;;;;8.50;4.25;;;;;;;;;;4749233;30;20140;-75
2022/01/23 07:32:08;;;;;;;7.38;4.95;;;;;;;;;;4751865;30;20504;-75
2022/01/23 07:34:12;;;;;;;9.32;4.90;;;;;;;;;;4734248;30;20051;-75
2022/01/23 07:36:39;;;;;;;7.63;4.90;;;;;;;;;;4744399;30;20040;-75
2022/01/23 07:39:04;;;;;;;7.18;4.53;;;;;;;;;;4741532;30;20277;-75
2022/01/23 07:41:30;;;;;;;6.83;4.07;;;;;;;;;;4746934;30;20127;-75
2022/01/23 07:43:58;;;;;;;6.90;5.30;;;;;;;;;;4745857;30;20135;-75
2022/01/23 07:46:24;;;;;;;7.35;5.03;;;;;;;;;;4752412;30;20036;-75
2022/01/23 07:48:49;;;;;;;7.80;4.90;;;;;;;;;;4749586;30;20456;-75
2022/01/23 07:51:14;;;;;;;8.33;4.90;;;;;;;;;;4753343;30;20040;-75
2022/01/23 07:53:40;;;;;;;6.43;4.27;;;;;;;;;;4753108;30;20115;-75
2022/01/23 07:56:05;;;;;;;6.80;4.60;;;;;;;;;;4753277;30;20401;-75
2022/01/23 07:58:31;;;;;;;9.00;4.63;;;;;;;;;;4752643;30;20044;-75
2022/01/23 08:00:56;;;;;;;8.60;5.23;;;;;;;;;;4752639;30;20036;-77
2022/01/23 08:03:21;;;;;;;8.00;5.30;;;;;;;;;;4753216;30;20064;-78
2022/01/23 08:05:47;;;;;;;9.03;5.00;;;;;;;;;;4746340;30;20089;-77
2022/01/23 08:08:12;;;;;;;6.43;4.27;;;;;;;;;;4746937;30;20063;-78
2022/01/23 08:10:38;;;;;;;6.20;3.87;;;;;;;;;;4750873;30;20044;-78
2022/01/23 08:13:05;;;;;;;5.78;3.67;;;;;;;;;;4746481;30;20124;-75
2022/01/23 08:15:31;;;;;;;5.35;3.95;;;;;;;;;;4751991;30;20040;-75
2022/01/23 08:18:05;;;;;;;9.90;4.53;;;;;;;;;;4746225;30;20071;-75
2022/01/23 08:20:33;;;;;;;6.70;4.07;;;;;;;;;;4749467;30;20044;-74
2022/01/23 08:23:00;;;;;;;8.93;4.10;;;;;;;;;;4748832;30;20072;-74
2022/01/23 08:25:26;;;;;;;6.72;4.47;;;;;;;;;;4752585;30;20134;-75
2022/01/23 08:27:51;;;;;;;6.13;4.20;;;;;;;;;;4752533;30;20438;-75
2022/01/23 08:30:17;;;;;;;5.83;3.63;;;;;;;;;;4742864;30;20044;-76
2022/01/23 08:32:42;;;;;;;5.50;3.87;;;;;;;;;;4752608;30;20044;-76
2022/01/23 08:35:08;;;;;;;6.27;4.13;;;;;;;;;;4752492;30;20051;-76
2022/01/23 08:37:33;;;;;;;6.83;4.20;;;;;;;;;;4752684;30;20054;-76
2022/01/23 08:39:59;;;;;;;8.77;4.20;;;;;;;;;;4751251;30;20067;-76
2022/01/23 08:42:24;;;;;;;9.30;4.40;;;;;;;;;;4750876;30;20087;-75
2022/01/23 08:44:50;;;;;;;7.83;4.03;;;;;;;;;;4752289;30;20100;-74
2022/01/23 08:47:17;;;;;;;7.90;4.40;;;;;;;;;;4750981;30;20094;-74
2022/01/23 08:49:46;;;;;;;6.20;4.50;;;;;;;;;;4747464;30;20043;-74
2022/01/23 08:52:16;;;;;;;6.22;4.18;;;;;;;;;;4749522;30;20565;-74
2022/01/23 08:54:43;;;;;;;5.80;4.20;;;;;;;;;;4746487;30;20099;-74
2022/01/23 08:57:09;;;;;;;7.32;4.68;;;;;;;;;;4742701;30;20051;-75
2022/01/23 08:59:34;;;;;;;8.47;4.50;;;;;;;;;;4746560;30;20047;-74
2022/01/23 09:01:59;;;;;;;13.27;6.27;;;;;;;;;;4746911;30;20048;-76
2022/01/23 09:04:25;;;;;;;7.67;4.97;;;;;;;;;;4751981;30;20127;-76
2022/01/23 09:06:50;;;;;;;9.60;6.80;;;;;;;;;;4750800;30;20448;-75
2022/01/23 09:09:19;;;;;;;9.13;6.07;;;;;;;;;;4752101;30;20381;-76
2022/01/23 09:14:26;;;;;;;6.60;4.68;;;;;;;;;;4752269;30;20040;-74
2022/01/23 09:16:53;;;;;;;6.00;3.37;;;;;;;;;;4750894;30;20032;-74
2022/01/23 09:19:19;;;;;;;6.53;4.13;;;;;;;;;;4751167;30;20036;-75
2022/01/23 09:21:45;;;;;;;5.32;3.65;;;;;;;;;;4750969;30;20123;-75
2022/01/23 09:24:11;;;;;;;8.30;4.13;;;;;;;;;;4751687;30;20459;-74
2022/01/23 09:26:37;;;;;;;6.47;4.03;;;;;;;;;;4752149;30;20070;-74
2022/01/23 09:29:12;;;;;;;7.47;4.30;;;;;;;;;;4751022;30;20032;-74
2022/01/23 09:31:50;;;;;;;7.80;4.70;;;;;;;;;;4750939;30;20109;-74
2022/01/23 09:34:19;;;;;;;;;;;;;;;;;;4741887;30;20036;-74
2022/01/23 09:36:45;;;;;;;6.57;4.32;;;;;;;;;;4750615;30;20018;-74
2022/01/23 09:39:14;;;;;;;18.23;9.83;;;;;;;;;;4751975;30;20502;-74
2022/01/23 09:41:42;;;;;;;14.50;8.98;;;;;;;;;;4751097;30;20482;-74
2022/01/23 09:44:08;;;;;;;15.57;8.77;;;;;;;;;;4750488;30;20509;-74
2022/01/23 09:46:33;;;;;;;19.77;11.38;;;;;;;;;;4751903;30;20036;-74
2022/01/23 09:48:59;;;;;;;25.43;14.33;;;;;;;;;;4750908;30;20040;-74
2022/01/23 09:51:25;;;;;;;22.77;14.20;;;;;;;;;;4750543;30;20566;-74
2022/01/23 09:53:55;;;;;;;25.92;15.55;;;;;;;;;;4752316;30;20119;-74
2022/01/23 09:56:27;;;;;;;21.83;14.60;;;;;;;;;;4753647;30;20551;-74
2022/01/23 09:58:57;;;;;;;24.67;13.52;;;;;;;;;;4753849;30;20477;-74
2022/01/23 10:01:23;;;;;;;22.38;14.45;;;;;;;;;;4755142;30;20052;-74
2022/01/23 10:03:49;;;;;;;25.27;15.13;;;;;;;;;;4755101;30;20056;-74
2022/01/23 10:06:16;;;;;;;27.73;15.73;;;;;;;;;;4753786;30;20048;-74
2022/01/23 10:08:41;;;;;;;26.55;15.35;;;;;;;;;;4753921;30;20043;-74
2022/01/23 10:11:10;;;;;;;23.70;15.13;;;;;;;;;;4754722;30;20048;-74
2022/01/23 10:13:36;;;;;;;25.92;15.48;;;;;;;;;;4754886;30;20047;-74
2022/01/23 10:16:02;;;;;;;25.10;16.17;;;;;;;;;;4754620;30;20119;-74
2022/01/23 10:18:27;;;;;;;23.15;14.23;;;;;;;;;;4754830;30;20123;-74
2022/01/23 10:20:53;;;;;;;25.07;15.07;;;;;;;;;;4754920;30;20131;-74
2022/01/23 10:23:19;;;;;;;25.80;13.80;;;;;;;;;;4754642;30;20493;-74
2022/01/23 10:25:46;;;;;;;22.53;14.10;;;;;;;;;;4754818;30;20072;-74
2022/01/23 10:28:18;;;;;;;19.40;12.25;;;;;;;;;;4754576;30;20047;-74
2022/01/23 10:30:54;;;;;;;24.05;14.23;;;;;;;;;;4753552;30;20040;-74
2022/01/23 10:33:32;;;;;;;25.83;15.57;;;;;;;;;;4748611;30;20051;-74
2022/01/23 10:35:59;;;;;;;21.92;13.48;;;;;;;;;;4747188;30;20067;-74
2022/01/23 10:38:29;;;;;;;20.98;13.00;;;;;;;;;;4748678;30;20402;-74
2022/01/23 10:49:58;;;;;;;25.50;13.57;;;;;;;;;;4754271;30;20056;-74
2022/01/23 10:52:38;;;;;;;25.65;13.93;;;;;;;;;;4753123;30;20044;-74
2022/01/23 10:55:10;;;;;;;23.92;13.43;;;;;;;;;;4753177;30;20110;-74
2022/01/23 10:57:38;;;;;;;24.17;13.90;;;;;;;;;;4754032;30;20501;-74
2022/01/23 11:00:07;;;;;;;24.15;14.32;;;;;;;;;;4754009;30;20055;-76
2022/01/23 11:02:32;;;;;;;22.17;12.60;;;;;;;;;;4753795;30;20063;-76
2022/01/23 11:05:04;;;;;;;22.10;12.93;;;;;;;;;;4738163;30;20043;-76
2022/01/23 11:07:31;;;;;;;21.30;12.32;;;;;;;;;;4752321;30;20040;-76
2022/01/23 11:10:02;;;;;;;19.75;11.40;;;;;;;;;;4752858;30;20093;-76
2022/01/23 11:18:18;;;;;;;18.45;12.90;;;;;;;;;;4752404;30;20063;-76
2022/01/23 11:20:48;;;;;;;19.50;10.18;;;;;;;;;;4753858;30;20048;-76
2022/01/23 11:23:16;;;;;;;21.17;11.45;;;;;;;;;;4753729;30;20056;-76
2022/01/23 11:25:44;;;;;;;17.27;10.18;;;;;;;;;;4753597;30;20046;-76
2022/01/23 11:28:10;;;;;;;16.58;10.35;;;;;;;;;;4753759;30;20046;-76
2022/01/23 11:30:39;;;;;;;17.70;9.93;;;;;;;;;;4752143;30;20115;-76
2022/01/23 11:33:08;;;;;;;15.07;9.50;;;;;;;;;;4753770;30;20035;-76
2022/01/23 11:35:34;;;;;;;18.02;9.88;;;;;;;;;;4752279;30;20043;-76
2022/01/23 11:37:59;;;;;;;18.20;10.27;;;;;;;;;;4752117;30;20379;-76
2022/01/23 11:40:39;;;;;;;18.63;11.10;;;;;;;;;;4752265;30;20639;-76
2022/01/23 11:53:44;;;;;;;21.55;11.98;;;;;;;;;;4752079;30;20058;-74
2022/01/23 11:54:06;;;;;;;17.45;10.80;;;;;;;;;;4753260;30;20411;-73
2022/01/23 11:56:41;;;;;;;17.85;10.50;;;;;;;;;;4751390;30;20043;-73
2022/01/23 11:59:10;;;;;;;21.13;12.43;;;;;;;;;;4752187;30;20059;-74
2022/01/23 12:01:36;;;;;;;18.95;11.55;;;;;;;;;;4745893;30;20502;-77
2022/01/23 12:04:08;;;;;;;15.50;9.68;;;;;;;;;;4745273;30;20059;-76
2022/01/23 12:06:35;;;;;;;15.77;10.00;;;;;;;;;;4746431;30;20059;-77
2022/01/23 12:09:10;;;;;;;19.05;11.45;;;;;;;;;;4751376;30;20410;-76
2022/01/23 12:11:48;;;;;;;19.90;11.23;;;;;;;;;;4748331;30;20123;-74
2022/01/23 12:16:59;;;;;;;18.63;11.57;;;;;;;;;;4751289;30;20632;-74
2022/01/23 12:19:31;;;;;;;16.58;11.20;;;;;;;;;;4751530;30;20040;-74
2022/01/23 12:21:59;;;;;;;17.55;10.57;;;;;;;;;;4751588;30;20040;-74
2022/01/23 12:24:25;;;;;;;17.05;10.77;;;;;;;;;;4746165;30;20040;-74
2022/01/23 12:27:12;;;;;;;20.52;10.77;;;;;;;;;;4751502;30;20127;-74
2022/01/23 12:29:37;;;;;;;19.23;10.90;;;;;;;;;;4752628;30;20059;-74
2022/01/23 12:32:18;;;;;;;21.97;12.07;;;;;;;;;;4752736;30;20048;-74
2022/01/23 12:34:55;;;;;;;18.90;11.30;;;;;;;;;;4752427;30;20051;-74
2022/01/23 12:37:21;;;;;;;21.00;13.23;;;;;;;;;;4745703;30;20137;-74
2022/01/23 12:40:24;;;;;;;17.63;11.83;;;;;;;;;;4749042;30;20364;-77
2022/01/23 12:43:18;;;;;;;16.58;10.95;;;;;;;;;;4750339;30;20040;-77
2022/01/23 12:45:53;;;;;;;19.98;11.18;;;;;;;;;;4745499;30;20044;-77
2022/01/23 12:48:25;;;;;;;20.25;11.73;;;;;;;;;;4742744;30;20138;-77
2022/01/23 12:50:51;;;;;;;21.95;12.80;;;;;;;;;;4750845;30;20155;-77
2022/01/23 12:53:17;;;;;;;17.80;11.93;;;;;;;;;;4751265;30;20445;-77
2022/01/23 12:56:07;;;;;;;19.90;12.17;;;;;;;;;;4750841;30;20094;-77
2022/01/23 12:58:33;;;;;;;18.00;11.18;;;;;;;;;;4746812;30;20048;-73
2022/01/23 13:01:00;;;;;;;21.08;11.93;;;;;;;;;;4744600;30;20418;-76
2022/01/23 13:03:27;;;;;;;17.67;11.18;;;;;;;;;;4744620;30;20069;-76
2022/01/23 13:05:52;;;;;;;20.38;12.77;;;;;;;;;;4749859;30;20048;-76
2022/01/23 13:08:29;;;;;;;23.83;14.33;;;;;;;;;;4750789;30;20398;-76
2022/01/23 13:13:53;;;;;;;18.45;11.52;;;;;;;;;;4721259;30;20048;-76
2022/01/23 13:16:57;;;;;;;18.00;11.95;;;;;;;;;;4748066;30;20455;-75
2022/01/23 13:30:17;;;;;;;16.90;9.85;;;;;;;;;;4753014;30;20082;-76
2022/01/23 13:32:46;;;;;;;18.10;12.35;;;;;;;;;;4753947;30;20401;-76
2022/01/23 13:35:15;;;;;;;19.75;11.70;;;;;;;;;;4755395;30;20111;-76
2022/01/23 13:37:46;;;;;;;16.40;10.40;;;;;;;;;;4749403;30;20040;-76
2022/01/23 13:40:16;;;;;;;14.57;10.10;;;;;;;;;;4750599;30;20494;-76
2022/01/23 14:02:29;;;;;;;15.73;8.60;;;;;;;;;;4750385;30;20103;-76
2022/01/23 14:05:19;;;;;;;16.08;8.88;;;;;;;;;;4755180;30;20067;-76
2022/01/23 14:07:46;;;;;;;12.70;8.32;;;;;;;;;;4748743;30;20051;-76
2022/01/23 14:10:44;;;;;;;;;;;;;;;;;;4753389;30;20052;-76
2022/01/23 14:13:14;;;;;;;16.42;9.73;;;;;;;;;;4732954;30;19922;-76
2022/01/23 14:15:44;;;;;;;16.70;9.80;;;;;;;;;;4749976;30;20112;-76
2022/01/23 14:18:12;;;;;;;14.63;8.80;;;;;;;;;;4752375;30;20036;-76
2022/01/23 14:20:56;;;;;;;14.63;8.68;;;;;;;;;;4753198;30;20055;-76
2022/01/23 14:23:22;;;;;;;17.08;9.25;;;;;;;;;;4754901;30;20040;-76
2022/01/23 14:25:49;;;;;;;16.73;10.07;;;;;;;;;;4752836;30;20048;-76
2022/01/23 14:28:20;;;;;;;13.27;8.90;;;;;;;;;;4753390;30;20028;-76
2022/01/23 14:30:49;;;;;;;14.80;8.98;;;;;;;;;;4750692;30;20044;-76
2022/01/23 14:33:22;;;;;;;15.50;8.75;;;;;;;;;;4738798;30;20056;-76
2022/01/23 14:35:48;;;;;;;15.52;9.80;;;;;;;;;;4754495;30;20036;-76
2022/01/23 14:38:21;;;;;;;18.23;9.70;;;;;;;;;;4751164;30;20393;-76
2022/01/23 14:41:09;;;;;;;16.15;9.57;;;;;;;;;;4753134;30;20070;-76
2022/01/23 14:43:40;;;;;;;23.73;11.43;;;;;;;;;;4751489;30;20198;-76
2022/01/23 14:46:11;;;;;;;22.20;11.38;;;;;;;;;;4751818;30;20152;-76
2022/01/23 14:48:43;;;;;;;21.27;12.13;;;;;;;;;;4748722;30;20056;-76
2022/01/23 14:51:09;;;;;;;20.38;12.10;;;;;;;;;;4752629;30;20514;-74
2022/01/23 14:53:37;;;;;;;23.83;12.13;;;;;;;;;;4754000;30;20050;-74
2022/01/23 14:56:05;;;;;;;22.92;12.35;;;;;;;;;;4754203;30;20115;-75
2022/01/23 14:58:33;;;;;;;20.65;11.77;;;;;;;;;;4754267;30;20043;-74
2022/01/23 15:00:59;;;;;;;19.60;11.57;;;;;;;;;;4752679;30;20048;-77
2022/01/23 15:03:26;;;;;;;21.37;12.43;;;;;;;;;;4752661;30;20060;-77
2022/01/23 15:05:52;;;;;;;21.88;13.35;;;;;;;;;;4752641;30;20435;-77
2022/01/23 15:08:21;;;;;;;21.33;12.50;;;;;;;;;;4747356;30;20040;-77
2022/01/23 15:10:48;;;;;;;25.17;13.63;;;;;;;;;;4752101;30;20040;-77
2022/01/23 15:13:14;;;;;;;;;;;;;;;;;;4749208;30;20079;-77
2022/01/23 15:15:40;;;;;;;23.48;11.45;;;;;;;;;;4744791;30;19965;-77
2022/01/23 15:18:05;;;;;;;25.20;12.70;;;;;;;;;;4753200;30;20071;-77
2022/01/23 15:20:33;;;;;;;21.10;12.97;;;;;;;;;;4752636;30;20040;-77
2022/01/23 15:22:59;;;;;;;22.75;13.27;;;;;;;;;;4742004;30;20051;-77
2022/01/23 15:25:25;;;;;;;28.80;15.00;;;;;;;;;;4753188;30;20079;-77
2022/01/23 15:27:51;;;;;;;21.27;12.77;;;;;;;;;;4752515;30;20510;-77
2022/01/23 15:30:16;;;;;;;19.60;11.93;;;;;;;;;;4753837;30;20134;-77
2022/01/23 15:32:45;;;;;;;22.53;12.27;;;;;;;;;;4752400;30;20390;-77
2022/01/23 15:35:13;;;;;;;19.63;12.13;;;;;;;;;;4752591;30;20067;-76
2022/01/23 15:37:39;;;;;;;25.55;13.25;;;;;;;;;;4751538;30;20051;-76
2022/01/23 15:40:07;;;;;;;24.07;13.53;;;;;;;;;;4752045;30;20097;-76
2022/01/23 15:42:32;;;;;;;21.98;13.27;;;;;;;;;;4752343;30;20039;-76
2022/01/23 15:44:58;;;;;;;23.63;13.23;;;;;;;;;;4753352;30;20044;-76
2022/01/23 15:47:23;;;;;;;24.83;13.33;;;;;;;;;;4753352;30;20032;-75
2022/01/23 15:49:49;;;;;;;25.67;13.73;;;;;;;;;;4753204;30;20044;-75
2022/01/23 15:52:14;;;;;;;29.13;13.70;;;;;;;;;;4752885;30;20119;-75
2022/01/23 15:54:41;;;;;;;25.00;14.03;;;;;;;;;;4753160;30;20072;-75
2022/01/23 15:57:07;;;;;;;26.50;14.98;;;;;;;;;;4753316;30;20058;-75
2022/01/23 15:59:32;;;;;;;24.55;13.30;;;;;;;;;;4753049;30;20051;-76
2022/01/23 16:01:58;;;;;;;26.30;14.53;;;;;;;;;;4745639;30;20037;-78
2022/01/23 16:04:24;;;;;;;29.97;16.70;;;;;;;;;;4741402;30;20044;-77
2022/01/23 16:06:50;;;;;;;25.40;13.30;;;;;;;;;;4739891;30;20121;-78
2022/01/23 16:09:15;;;;;;;24.60;14.27;;;;;;;;;;4739246;30;20048;-77
2022/01/23 16:11:41;;;;;;;29.53;16.10;;;;;;;;;;4739626;30;20406;-78
2022/01/23 16:14:07;;;;;;;26.00;15.35;;;;;;;;;;4741160;30;20058;-78
2022/01/23 16:16:33;;;;;;;30.67;14.70;;;;;;;;;;4742568;30;20045;-77
2022/01/23 16:18:59;;;;;;;31.53;17.17;;;;;;;;;;4745126;30;20047;-77
2022/01/23 16:21:25;;;;;;;45.83;20.57;;;;;;;;;;4739415;30;20036;-77
2022/01/23 16:23:51;;;;;;;32.53;17.00;;;;;;;;;;4748765;30;20047;-74
2022/01/23 16:26:17;;;;;;;35.20;18.30;;;;;;;;;;4749460;30;20037;-75
2022/01/23 16:28:44;;;;;;;53.70;29.70;;;;;;;;;;4743336;30;20044;-74
2022/01/23 16:31:09;;;;;;;;;;;;;;;;;;4743838;30;20115;-74
2022/01/23 16:33:35;;;;;;;37.30;20.65;;;;;;;;;;4751710;30;19914;-74
2022/01/23 16:36:01;;;;;;;35.50;20.20;;;;;;;;;;4744999;30;20127;-74
2022/01/23 16:38:26;;;;;;;36.20;18.97;;;;;;;;;;4750476;30;20043;-74
2022/01/23 16:40:54;;;;;;;34.47;18.27;;;;;;;;;;4742394;30;20111;-77
2022/01/23 16:43:23;;;;;;;33.85;18.88;;;;;;;;;;4748647;30;20498;-77
2022/01/23 16:45:53;;;;;;;37.28;18.65;;;;;;;;;;4750192;30;20056;-76
2022/01/23 16:48:18;;;;;;;33.00;18.00;;;;;;;;;;4748609;30;20101;-77
2022/01/23 16:50:44;;;;;;;36.30;19.40;;;;;;;;;;4750191;30;20399;-76
2022/01/23 16:53:09;;;;;;;34.93;19.60;;;;;;;;;;4751276;30;20032;-76
2022/01/23 16:55:35;;;;;;;33.70;18.70;;;;;;;;;;4750810;30;20044;-77
2022/01/23 16:58:01;;;;;;;38.70;20.40;;;;;;;;;;4750795;30;20048;-77
2022/01/23 17:00:27;;;;;;;47.20;23.13;;;;;;;;;;4751328;30;20115;-77
2022/01/23 17:02:52;;;;;;;38.37;20.13;;;;;;;;;;4751161;30;20143;-77
2022/01/23 17:05:18;;;;;;;48.23;23.50;;;;;;;;;;4751251;30;20482;-76
2022/01/23 17:07:44;;;;;;;39.17;22.27;;;;;;;;;;4747515;30;20518;-77
2022/01/23 17:10:09;;;;;;;60.33;32.83;;;;;;;;;;4750824;30;20119;-77
2022/01/23 17:12:35;;;;;;;49.73;26.47;;;;;;;;;;4746930;30;20085;-77
2022/01/23 17:15:00;;;;;;;39.90;19.27;;;;;;;;;;4750927;30;20525;-77
2022/01/23 17:17:26;;;;;;;41.67;21.17;;;;;;;;;;4745693;30;20040;-77
2022/01/23 17:19:52;;;;;;;35.00;19.90;;;;;;;;;;4745158;30;20048;-76
2022/01/23 17:22:20;;;;;;;50.00;20.58;;;;;;;;;;4745346;30;20055;-77
2022/01/23 17:24:46;;;;;;;49.40;24.17;;;;;;;;;;4749242;30;20384;-77
2022/01/23 17:27:11;;;;;;;52.80;27.03;;;;;;;;;;4749011;30;20048;-76
2022/01/23 17:29:37;;;;;;;44.90;22.87;;;;;;;;;;4750436;30;20040;-77
2022/01/23 17:32:08;;;;;;;43.97;24.03;;;;;;;;;;4745876;30;20051;-76
2022/01/23 17:34:35;;;;;;;48.15;23.67;;;;;;;;;;4750548;30;20047;-76
2022/01/23 17:37:01;;;;;;;97.22;43.25;;;;;;;;;;4741747;30;20041;-77
2022/01/23 17:39:26;;;;;;;82.73;38.07;;;;;;;;;;4750658;30;20047;-77
2022/01/23 17:41:53;;;;;;;88.53;39.00;;;;;;;;;;4744350;30;20052;-77
2022/01/23 17:44:18;;;;;;;;;;;;;;;;;;4752027;30;20486;-77
2022/01/23 17:46:45;;;;;;;43.55;22.23;;;;;;;;;;4746354;30;19922;-76
2022/01/23 17:49:20;;;;;;;;;;;;;;;;;;4750670;30;20052;-77
2022/01/23 17:51:46;;;;;;;48.25;22.23;;;;;;;;;;4750099;30;19918;-74
2022/01/23 17:54:11;;;;;;;46.20;22.57;;;;;;;;;;4750093;30;20054;-77
2022/01/23 17:56:37;;;;;;;35.40;19.00;;;;;;;;;;4758713;30;20028;-77
2022/01/23 17:59:04;;;;;;;39.53;21.53;;;;;;;;;;4754489;30;20414;-77
2022/01/23 18:01:30;;;;;;;40.58;20.60;;;;;;;;;;4754854;30;20055;-76